createdAt,value
2023-02-05T03:59:16.239Z,0.00
2023-02-05T04:00:16.222Z,0.00
2023-02-05T04:01:14.781Z,0.00
2023-02-05T04:02:15.655Z,0.00
2023-02-05T04:03:16.215Z,0.00
2023-02-05T04:04:15.708Z,0.00
2023-02-05T04:05:15.735Z,0.00
2023-02-05T04:06:14.607Z,0.00
2023-02-05T04:07:16.219Z,0.00
2023-02-05T04:08:15.579Z,0.00
2023-02-05T04:09:16.202Z,0.00
2023-02-05T04:10:16.197Z,0.00
2023-02-05T04:11:16.220Z,0.00
2023-02-05T04:12:16.203Z,0.00
2023-02-05T04:13:16.206Z,0.00
2023-02-05T04:14:14.545Z,0.00
2023-02-05T04:15:16.214Z,0.00
2023-02-05T04:16:16.258Z,0.00
2023-02-05T04:17:16.218Z,0.00
2023-02-05T04:18:16.205Z,0.00
2023-02-05T04:19:14.514Z,0.00
2023-02-05T04:20:16.208Z,0.00
2023-02-05T04:21:16.225Z,0.00
2023-02-05T04:22:16.236Z,0.00
2023-02-05T04:23:14.495Z,0.00
2023-02-05T04:24:14.504Z,0.00
2023-02-05T04:25:14.488Z,0.00
2023-02-05T04:26:16.231Z,0.00
2023-02-05T04:27:14.476Z,0.00
2023-02-05T04:28:16.268Z,0.00
2023-02-05T04:29:16.219Z,0.00
2023-02-05T04:30:16.235Z,0.00
2023-02-05T04:31:16.270Z,0.00
2023-02-05T04:32:16.238Z,0.00
2023-02-05T04:33:16.226Z,0.00
2023-02-05T04:34:16.218Z,0.00
2023-02-05T04:35:16.244Z,0.00
2023-02-05T04:36:16.236Z,0.00
2023-02-05T04:37:16.224Z,0.00
2023-02-05T04:38:16.274Z,0.00
2023-02-05T04:39:16.244Z,0.00
2023-02-05T04:40:16.246Z,0.00
2023-02-05T04:41:14.417Z,0.00
2023-02-05T04:42:15.420Z,0.00
2023-02-05T04:43:15.410Z,0.00
2023-02-05T04:44:14.400Z,0.00
2023-02-05T04:45:15.743Z,0.00
2023-02-05T04:46:14.456Z,0.00
2023-02-05T04:47:16.267Z,0.00
2023-02-05T04:48:15.381Z,0.00
2023-02-05T04:49:15.374Z,0.00
2023-02-05T04:50:15.374Z,0.00
2023-02-05T04:51:14.367Z,0.00
2023-02-05T04:52:16.265Z,0.00
2023-02-05T04:53:15.750Z,0.00
2023-02-05T04:54:14.354Z,0.00
2023-02-05T04:55:15.345Z,0.00
2023-02-05T04:56:14.352Z,0.00
2023-02-05T04:57:16.259Z,0.00
2023-02-05T04:58:15.351Z,0.00
2023-02-05T04:59:16.266Z,0.00
2023-02-05T05:00:16.270Z,0.00
2023-02-05T05:01:16.310Z,0.00
2023-02-05T05:02:16.303Z,0.00
2023-02-05T05:03:16.267Z,0.00
2023-02-05T05:04:16.255Z,0.00
2023-02-05T05:05:16.258Z,0.00
2023-02-05T05:06:16.250Z,0.00
2023-02-05T05:07:16.262Z,0.00
2023-02-05T05:08:16.252Z,0.00
2023-02-05T05:09:16.254Z,0.00
2023-02-05T05:10:16.264Z,0.00
2023-02-05T05:11:16.265Z,0.00
2023-02-05T05:12:16.277Z,0.00
2023-02-05T05:13:15.769Z,0.00
2023-02-05T05:14:15.269Z,0.00
2023-02-05T05:15:15.262Z,0.00
2023-02-05T05:16:15.301Z,0.00
2023-02-05T05:17:14.248Z,0.00
2023-02-05T05:18:14.248Z,0.00
2023-02-05T05:19:14.254Z,0.00
2023-02-05T05:20:15.779Z,0.00
2023-02-05T05:21:14.240Z,0.00
2023-02-05T05:22:14.230Z,0.00
2023-02-05T05:23:15.777Z,0.00
2023-02-05T05:24:14.224Z,0.00
2023-02-05T05:25:14.216Z,0.00
2023-02-05T05:26:14.212Z,0.00
2023-02-05T05:27:15.781Z,0.00
2023-02-05T05:28:14.294Z,0.00
2023-02-05T05:29:14.196Z,0.00
2023-02-05T05:30:15.208Z,0.00
2023-02-05T05:31:14.255Z,0.00
2023-02-05T05:32:15.853Z,0.00
2023-02-05T05:33:15.282Z,0.00
2023-02-05T05:34:14.179Z,0.00
2023-02-05T05:35:15.803Z,0.00
2023-02-05T05:36:14.168Z,0.00
2023-02-05T05:37:15.809Z,0.00
2023-02-05T05:38:14.156Z,0.00
2023-02-05T05:39:14.163Z,0.00
2023-02-05T05:40:15.782Z,0.00
2023-02-05T05:41:15.803Z,0.00
2023-02-05T05:42:15.798Z,0.00
2023-02-05T05:43:15.780Z,0.00
2023-02-05T05:44:15.786Z,0.00
2023-02-05T05:45:15.785Z,0.00
2023-02-05T05:46:15.861Z,0.00
2023-02-05T05:47:15.813Z,0.00
2023-02-05T05:48:15.796Z,0.00
2023-02-05T05:49:15.801Z,0.00
2023-02-05T05:50:15.792Z,0.00
2023-02-05T05:51:15.835Z,0.00
2023-02-05T05:52:15.800Z,0.00
2023-02-05T05:53:15.788Z,0.00
2023-02-05T05:54:15.836Z,0.00
2023-02-05T05:55:15.797Z,0.00
2023-02-05T05:56:15.793Z,0.00
2023-02-05T05:57:15.823Z,0.00
2023-02-05T05:58:14.067Z,0.00
2023-02-05T05:59:14.067Z,0.00
2023-02-05T06:00:14.078Z,0.00
2023-02-05T06:01:15.823Z,0.00
2023-02-05T06:02:15.878Z,0.00
2023-02-05T06:03:15.811Z,0.00
2023-02-05T06:04:15.853Z,0.00
2023-02-05T06:05:15.797Z,0.00
2023-02-05T06:06:15.800Z,0.00
2023-02-05T06:07:15.801Z,0.00
2023-02-05T06:08:15.815Z,0.00
2023-02-05T06:09:15.815Z,0.00
2023-02-05T06:10:14.022Z,0.00
2023-02-05T06:11:15.802Z,0.00
2023-02-05T06:12:15.803Z,0.00
2023-02-05T06:13:15.826Z,0.00
2023-02-05T06:14:15.812Z,0.00
2023-02-05T06:15:15.818Z,0.00
2023-02-05T06:16:15.863Z,0.00
2023-02-05T06:17:13.979Z,0.00
2023-02-05T06:18:15.853Z,0.00
2023-02-05T06:19:14.970Z,0.00
2023-02-05T06:20:13.959Z,0.00
2023-02-05T06:21:13.965Z,0.00
2023-02-05T06:22:15.819Z,0.00
2023-02-05T06:23:13.964Z,0.00
2023-02-05T06:24:13.943Z,0.00
2023-02-05T06:25:14.935Z,0.00
2023-02-05T06:26:13.968Z,0.00
2023-02-05T06:27:15.821Z,0.00
2023-02-05T06:28:13.960Z,0.00
2023-02-05T06:29:15.329Z,0.00
2023-02-05T06:30:13.927Z,0.00
2023-02-05T06:31:13.965Z,0.00
2023-02-05T06:32:15.825Z,0.00
2023-02-05T06:33:15.824Z,0.00
2023-02-05T06:34:15.858Z,0.00
2023-02-05T06:35:15.825Z,0.00
2023-02-05T06:36:15.832Z,0.00
2023-02-05T06:37:15.846Z,0.00
2023-02-05T06:38:15.841Z,0.00
2023-02-05T06:39:15.856Z,0.00
2023-02-05T06:40:15.974Z,0.00
2023-02-05T06:41:15.831Z,0.00
2023-02-05T06:42:15.823Z,0.00
2023-02-05T06:43:15.823Z,0.00
2023-02-05T06:44:15.847Z,0.00
2023-02-05T06:45:15.836Z,0.00
2023-02-05T06:46:15.908Z,0.00
2023-02-05T06:47:15.844Z,0.00
2023-02-05T06:48:15.827Z,0.00
2023-02-05T06:49:15.330Z,0.00
2023-02-05T06:50:15.344Z,0.00
2023-02-05T06:51:15.332Z,0.00
2023-02-05T06:52:15.333Z,4.00
2023-02-05T06:53:15.347Z,4.00
2023-02-05T06:54:15.362Z,4.00
2023-02-05T06:55:15.356Z,0.00
2023-02-05T06:56:14.849Z,4.00
2023-02-05T06:57:13.808Z,4.00
2023-02-05T06:58:13.799Z,4.00
2023-02-05T06:59:14.797Z,8.00
2023-02-05T07:00:15.353Z,8.00
2023-02-05T07:01:14.819Z,8.00
2023-02-05T07:02:13.785Z,8.00
2023-02-05T07:03:15.369Z,12.00
2023-02-05T07:04:13.786Z,8.00
2023-02-05T07:05:15.350Z,12.00
2023-02-05T07:06:13.770Z,12.00
2023-02-05T07:07:15.385Z,12.00
2023-02-05T07:08:13.760Z,16.00
2023-02-05T07:09:15.361Z,16.00
2023-02-05T07:10:13.777Z,16.00
2023-02-05T07:11:15.355Z,20.00
2023-02-05T07:12:15.352Z,16.00
2023-02-05T07:13:15.363Z,16.00
2023-02-05T07:14:15.353Z,20.00
2023-02-05T07:15:15.357Z,20.00
2023-02-05T07:16:15.364Z,20.00
2023-02-05T07:17:15.404Z,28.00
2023-02-05T07:18:15.368Z,28.00
2023-02-05T07:19:15.372Z,24.00
2023-02-05T07:20:13.728Z,28.00
2023-02-05T07:21:13.703Z,28.00
2023-02-05T07:22:15.397Z,32.00
2023-02-05T07:23:15.376Z,32.00
2023-02-05T07:24:13.697Z,32.00
2023-02-05T07:25:13.698Z,36.00
2023-02-05T07:26:13.712Z,36.00
2023-02-05T07:27:15.381Z,40.00
2023-02-05T07:28:13.741Z,44.00
2023-02-05T07:29:13.669Z,52.00
2023-02-05T07:30:13.668Z,52.00
2023-02-05T07:31:13.732Z,56.00
2023-02-05T07:32:15.396Z,60.00
2023-02-05T07:33:14.890Z,60.00
2023-02-05T07:34:13.650Z,64.00
2023-02-05T07:35:13.655Z,68.00
2023-02-05T07:36:15.374Z,76.00
2023-02-05T07:37:15.394Z,76.00
2023-02-05T07:38:15.374Z,84.00
2023-02-05T07:39:15.379Z,92.00
2023-02-05T07:40:13.623Z,96.00
2023-02-05T07:41:15.389Z,96.00
2023-02-05T07:42:15.459Z,100.00
2023-02-05T07:43:15.390Z,108.00
2023-02-05T07:44:15.384Z,108.00
2023-02-05T07:45:15.379Z,112.00
2023-02-05T07:46:15.480Z,112.00
2023-02-05T07:47:15.403Z,120.00
2023-02-05T07:48:15.398Z,120.00
2023-02-05T07:49:15.579Z,128.00
2023-02-05T07:50:15.379Z,132.00
2023-02-05T07:51:15.379Z,132.00
2023-02-05T07:52:15.383Z,128.00
2023-02-05T07:53:15.418Z,128.00
2023-02-05T07:54:15.385Z,128.00
2023-02-05T07:55:15.397Z,128.00
2023-02-05T07:56:13.549Z,128.00
2023-02-05T07:57:15.393Z,140.00
2023-02-05T07:58:15.425Z,144.00
2023-02-05T07:59:13.526Z,152.00
2023-02-05T08:00:14.545Z,168.00
2023-02-05T08:01:15.529Z,172.00
2023-02-05T08:02:15.417Z,172.00
2023-02-05T08:03:15.401Z,172.00
2023-02-05T08:04:14.539Z,176.00
2023-02-05T08:05:13.502Z,188.00
2023-02-05T08:06:13.501Z,188.00
2023-02-05T08:07:15.426Z,184.00
2023-02-05T08:08:15.416Z,184.00
2023-02-05T08:09:15.425Z,192.00
2023-02-05T08:10:15.397Z,196.00
2023-02-05T08:11:15.407Z,192.00
2023-02-05T08:12:15.410Z,192.00
2023-02-05T08:13:15.400Z,204.00
2023-02-05T08:14:15.410Z,212.00
2023-02-05T08:15:15.422Z,224.00
2023-02-05T08:16:15.477Z,228.00
2023-02-05T08:17:15.418Z,236.00
2023-02-05T08:18:15.442Z,252.00
2023-02-05T08:19:15.408Z,248.00
2023-02-05T08:20:15.405Z,264.00
2023-02-05T08:21:15.400Z,280.00
2023-02-05T08:22:14.921Z,296.00
2023-02-05T08:23:15.426Z,300.00
2023-02-05T08:24:14.421Z,284.00
2023-02-05T08:25:13.432Z,284.00
2023-02-05T08:26:13.411Z,280.00
2023-02-05T08:27:13.405Z,268.00
2023-02-05T08:28:15.009Z,252.00
2023-02-05T08:29:14.413Z,252.00
2023-02-05T08:30:13.427Z,264.00
2023-02-05T08:31:13.495Z,272.00
2023-02-05T08:32:13.388Z,264.00
2023-02-05T08:33:14.937Z,264.00
2023-02-05T08:34:13.382Z,240.00
2023-02-05T08:35:14.912Z,224.00
2023-02-05T08:36:13.391Z,216.00
2023-02-05T08:37:13.363Z,196.00
2023-02-05T08:38:14.953Z,220.00
2023-02-05T08:39:14.431Z,232.00
2023-02-05T08:40:14.915Z,228.00
2023-02-05T08:41:14.969Z,220.00
2023-02-05T08:42:13.344Z,216.00
2023-02-05T08:43:14.970Z,224.00
2023-02-05T08:44:14.933Z,244.00
2023-02-05T08:45:14.924Z,276.00
2023-02-05T08:46:15.058Z,336.00
2023-02-05T08:47:14.935Z,408.00
2023-02-05T08:48:14.937Z,484.00
2023-02-05T08:49:14.970Z,480.00
2023-02-05T08:50:14.931Z,496.00
2023-02-05T08:51:14.952Z,512.00
2023-02-05T08:52:13.297Z,512.00
2023-02-05T08:53:13.288Z,516.00
2023-02-05T08:54:14.963Z,528.00
2023-02-05T08:55:13.296Z,528.00
2023-02-05T08:56:13.291Z,536.00
2023-02-05T08:57:13.311Z,540.00
2023-02-05T08:58:13.309Z,532.00
2023-02-05T08:59:14.969Z,524.00
2023-02-05T09:00:14.953Z,516.00
2023-02-05T09:01:13.308Z,508.00
2023-02-05T09:02:13.279Z,500.00
2023-02-05T09:03:13.253Z,488.00
2023-02-05T09:04:14.552Z,476.00
2023-02-05T09:05:13.250Z,456.00
2023-02-05T09:06:13.263Z,444.00
2023-02-05T09:07:13.243Z,440.00
2023-02-05T09:08:14.969Z,444.00
2023-02-05T09:09:13.242Z,452.00
2023-02-05T09:10:13.220Z,460.00
2023-02-05T09:11:14.953Z,472.00
2023-02-05T09:12:14.958Z,480.00
2023-02-05T09:13:14.947Z,492.00
2023-02-05T09:14:14.956Z,500.00
2023-02-05T09:15:14.959Z,508.00
2023-02-05T09:16:15.008Z,516.00
2023-02-05T09:17:14.962Z,524.00
2023-02-05T09:18:14.975Z,532.00
2023-02-05T09:19:14.987Z,544.00
2023-02-05T09:20:14.967Z,548.00
2023-02-05T09:21:14.953Z,556.00
2023-02-05T09:22:14.967Z,564.00
2023-02-05T09:23:14.964Z,576.00
2023-02-05T09:24:14.957Z,592.00
2023-02-05T09:25:14.998Z,600.00
2023-02-05T09:26:14.964Z,616.00
2023-02-05T09:27:15.013Z,632.00
2023-02-05T09:28:15.113Z,656.00
2023-02-05T09:29:13.140Z,692.00
2023-02-05T09:30:13.207Z,740.00
2023-02-05T09:31:15.109Z,788.00
2023-02-05T09:32:13.136Z,828.00
2023-02-05T09:33:13.149Z,860.00
2023-02-05T09:34:15.000Z,904.00
2023-02-05T09:35:13.121Z,992.00
2023-02-05T09:36:13.116Z,1112.00
2023-02-05T09:37:15.005Z,1228.00
2023-02-05T09:38:14.117Z,1344.00
2023-02-05T09:39:25.639Z,1440.00
2023-02-05T09:40:21.935Z,1476.00
2023-02-05T09:41:15.009Z,1460.00
2023-02-05T09:42:14.996Z,1432.00
2023-02-05T09:43:14.980Z,1424.00
2023-02-05T09:44:15.027Z,1448.00
2023-02-05T09:45:14.998Z,1480.00
2023-02-05T09:46:15.101Z,1516.00
2023-02-05T09:47:14.978Z,1556.00
2023-02-05T09:48:15.008Z,1572.00
2023-02-05T09:49:14.996Z,1556.00
2023-02-05T09:50:15.206Z,1540.00
2023-02-05T09:51:14.988Z,1528.00
2023-02-05T09:52:14.984Z,1520.00
2023-02-05T09:53:14.994Z,1572.00
2023-02-05T09:54:14.994Z,1644.00
2023-02-05T09:55:14.500Z,1712.00
2023-02-05T09:56:13.032Z,1756.00
2023-02-05T09:57:13.037Z,1740.00
2023-02-05T09:58:13.045Z,1668.00
2023-02-05T09:59:13.030Z,1564.00
2023-02-05T10:00:14.518Z,1472.00
2023-02-05T10:01:14.042Z,1416.00
2023-02-05T10:02:13.022Z,1348.00
2023-02-05T10:13:30.487Z,1120.00
2023-02-05T10:14:30.441Z,1008.00
2023-02-05T10:15:31.879Z,1264.00
2023-02-05T10:16:30.441Z,1468.00
2023-02-05T10:17:32.340Z,1720.00
2023-02-05T10:18:31.423Z,1860.00
2023-02-05T10:19:30.409Z,1840.00
2023-02-05T10:20:32.352Z,1708.00
2023-02-05T10:21:30.404Z,1612.00
2023-02-05T10:22:32.322Z,1544.00
2023-02-05T10:23:31.395Z,1456.00
2023-02-05T10:24:31.401Z,1372.00
2023-02-05T10:25:32.038Z,1352.00
2023-02-05T10:26:31.375Z,1276.00
2023-02-05T10:27:32.356Z,1196.00
2023-02-05T10:28:30.381Z,1124.00
2023-02-05T10:29:30.386Z,1120.00
2023-02-05T10:30:32.390Z,1192.00
2023-02-05T10:31:31.891Z,1244.00
2023-02-05T10:32:31.371Z,1332.00
2023-02-05T10:33:30.373Z,1404.00
2023-02-05T10:34:31.857Z,1472.00
2023-02-05T10:35:30.352Z,1576.00
2023-02-05T10:36:30.351Z,1596.00
2023-02-05T10:37:31.365Z,1484.00
2023-02-05T10:38:31.335Z,1368.00
2023-02-05T10:39:31.860Z,1292.00
2023-02-05T10:40:31.348Z,1352.00
2023-02-05T10:41:30.340Z,1616.00
2023-02-05T10:42:31.327Z,1716.00
2023-02-05T10:43:31.374Z,1552.00
2023-02-05T10:44:31.865Z,1496.00
2023-02-05T10:45:31.368Z,1352.00
2023-02-05T10:46:31.911Z,1028.00
2023-02-05T10:47:31.851Z,776.00
2023-02-05T10:48:31.851Z,684.00
2023-02-05T10:49:31.864Z,696.00
2023-02-05T10:50:31.921Z,724.00
2023-02-05T10:51:31.862Z,728.00
2023-02-05T10:52:31.872Z,688.00
2023-02-05T10:53:31.873Z,700.00
2023-02-05T10:54:31.865Z,736.00
2023-02-05T10:55:31.960Z,832.00
2023-02-05T10:56:31.873Z,908.00
2023-02-05T10:57:31.870Z,1004.00
2023-02-05T10:58:31.855Z,1060.00
2023-02-05T10:59:31.856Z,920.00
2023-02-05T11:00:31.916Z,896.00
2023-02-05T11:01:31.957Z,952.00
2023-02-05T11:02:30.267Z,876.00
2023-02-05T11:03:30.259Z,768.00
2023-02-05T11:04:30.247Z,680.00
2023-02-05T11:05:30.238Z,684.00
2023-02-05T11:06:31.880Z,728.00
2023-02-05T11:07:30.241Z,740.00
2023-02-05T11:08:30.223Z,720.00
2023-02-05T11:09:30.229Z,656.00
2023-02-05T11:10:30.233Z,664.00
2023-02-05T11:11:31.408Z,744.00
2023-02-05T11:12:30.217Z,672.00
2023-02-05T11:13:30.213Z,628.00
2023-02-05T11:14:31.885Z,656.00
2023-02-05T11:15:30.211Z,764.00
2023-02-05T11:16:31.882Z,848.00
2023-02-05T11:17:30.215Z,860.00
2023-02-05T11:18:31.882Z,848.00
2023-02-05T11:19:31.874Z,1028.00
2023-02-05T11:20:32.022Z,1024.00
2023-02-05T11:21:31.947Z,1216.00
2023-02-05T11:22:31.904Z,1344.00
2023-02-05T11:23:31.879Z,1328.00
2023-02-05T11:24:31.875Z,1300.00
2023-02-05T11:25:31.898Z,1364.00
2023-02-05T11:26:31.892Z,1284.00
2023-02-05T11:27:31.884Z,1128.00
2023-02-05T11:28:31.922Z,1088.00
2023-02-05T11:29:31.887Z,1060.00
2023-02-05T11:30:49.994Z,956.00
2023-02-05T11:31:32.003Z,800.00
2023-02-05T11:32:31.158Z,764.00
2023-02-05T11:33:30.167Z,648.00
2023-02-05T11:34:30.146Z,640.00
2023-02-05T11:35:31.433Z,692.00
2023-02-05T11:36:30.128Z,788.00
2023-02-05T11:37:30.120Z,748.00
2023-02-05T11:38:31.914Z,868.00
2023-02-05T11:39:30.131Z,752.00
2023-02-05T11:40:30.112Z,716.00
2023-02-05T11:41:31.446Z,668.00
2023-02-05T11:42:30.119Z,608.00
2023-02-05T11:43:30.100Z,604.00
2023-02-05T11:44:30.557Z,648.00
2023-02-05T11:45:31.411Z,684.00
2023-02-05T11:46:30.108Z,696.00
2023-02-05T11:47:30.095Z,664.00
2023-02-05T11:48:30.082Z,660.00
2023-02-05T11:49:31.112Z,676.00
2023-02-05T11:50:32.328Z,640.00
2023-02-05T11:51:31.095Z,612.00
2023-02-05T11:52:30.079Z,604.00
2023-02-05T11:53:31.907Z,588.00
2023-02-05T11:54:30.061Z,572.00
2023-02-05T11:55:31.958Z,544.00
2023-02-05T11:56:30.054Z,520.00
2023-02-05T11:57:31.965Z,572.00
2023-02-05T11:58:36.442Z,608.00
2023-02-05T11:59:31.920Z,672.00
2023-02-05T12:00:31.042Z,656.00
2023-02-05T12:01:31.968Z,592.00
2023-02-05T12:02:31.438Z,572.00
2023-02-05T12:03:30.041Z,612.00
2023-02-05T12:04:31.940Z,504.00
2023-02-05T12:05:31.052Z,556.00
2023-02-05T12:06:30.017Z,472.00
2023-02-05T12:07:32.434Z,504.00
2023-02-05T12:08:31.019Z,552.00
2023-02-05T12:09:30.036Z,688.00
2023-02-05T12:10:31.026Z,692.00
2023-02-05T12:11:31.027Z,684.00
2023-02-05T12:12:31.450Z,560.00
2023-02-05T12:13:30.009Z,420.00
2023-02-05T12:14:30.000Z,348.00
2023-02-05T12:15:29.995Z,300.00
2023-02-05T12:16:32.000Z,316.00
2023-02-05T12:17:31.006Z,336.00
2023-02-05T12:18:31.462Z,360.00
2023-02-05T12:19:30.987Z,380.00
2023-02-05T12:20:29.991Z,392.00
2023-02-05T12:21:31.947Z,400.00
2023-02-05T12:22:31.942Z,360.00
2023-02-05T12:23:31.964Z,360.00
2023-02-05T12:24:29.953Z,360.00
2023-02-05T12:25:32.461Z,456.00
2023-02-05T12:26:29.977Z,548.00
2023-02-05T12:27:30.962Z,580.00
2023-02-05T12:28:31.472Z,536.00
2023-02-05T12:29:30.943Z,628.00
2023-02-05T12:30:31.596Z,704.00
2023-02-05T12:31:31.498Z,572.00
2023-02-05T12:32:31.454Z,640.00
2023-02-05T12:33:31.461Z,664.00
2023-02-05T12:34:31.468Z,644.00
2023-02-05T12:35:31.473Z,588.00
2023-02-05T12:36:31.452Z,620.00
2023-02-05T12:37:31.451Z,576.00
2023-02-05T12:38:32.698Z,728.00
2023-02-05T12:39:31.468Z,712.00
2023-02-05T12:40:31.473Z,512.00
2023-02-05T12:41:31.461Z,620.00
2023-02-05T12:42:31.495Z,492.00
2023-02-05T12:43:29.891Z,436.00
2023-02-05T12:44:32.220Z,396.00
2023-02-05T12:45:29.883Z,428.00
2023-02-05T12:46:29.872Z,504.00
2023-02-05T12:47:29.861Z,496.00
2023-02-05T12:48:29.880Z,512.00
2023-02-05T12:49:30.962Z,556.00
2023-02-05T12:50:29.864Z,536.00
2023-02-05T12:51:29.868Z,560.00
2023-02-05T12:52:30.855Z,564.00
2023-02-05T12:53:31.467Z,640.00
2023-02-05T12:54:31.481Z,792.00
2023-02-05T12:55:31.478Z,668.00
2023-02-05T12:56:29.830Z,608.00
2023-02-05T12:57:31.483Z,692.00
2023-02-05T12:58:31.481Z,604.00
2023-02-05T12:59:31.498Z,636.00
2023-02-05T13:00:31.470Z,616.00
2023-02-05T13:01:31.466Z,592.00
2023-02-05T13:02:31.485Z,676.00
2023-02-05T13:03:31.471Z,564.00
2023-02-05T13:04:31.698Z,416.00
2023-02-05T13:05:31.562Z,360.00
2023-02-05T13:06:31.461Z,532.00
2023-02-05T13:07:31.473Z,416.00
2023-02-05T13:08:31.492Z,420.00
2023-02-05T13:09:31.516Z,492.00
2023-02-05T13:10:31.468Z,496.00
2023-02-05T13:11:31.483Z,504.00
2023-02-05T13:12:31.470Z,400.00
2023-02-05T13:13:31.477Z,384.00
2023-02-05T13:14:31.485Z,420.00
2023-02-05T13:15:31.480Z,464.00
2023-02-05T13:16:29.933Z,460.00
2023-02-05T13:17:29.775Z,500.00
2023-02-05T13:18:29.756Z,576.00
2023-02-05T13:19:31.002Z,572.00
2023-02-05T13:20:29.749Z,536.00
2023-02-05T13:21:29.737Z,556.00
2023-02-05T13:22:29.747Z,644.00
2023-02-05T13:23:29.742Z,728.00
2023-02-05T13:24:31.533Z,832.00
2023-02-05T13:25:37.790Z,904.00
2023-02-05T13:26:31.515Z,908.00
2023-02-05T13:27:30.729Z,916.00
2023-02-05T13:28:31.524Z,952.00
2023-02-05T13:29:30.721Z,948.00
2023-02-05T13:30:31.576Z,944.00
2023-02-05T13:31:31.051Z,888.00
2023-02-05T13:32:31.501Z,932.00
2023-02-05T13:33:29.694Z,872.00
2023-02-05T13:34:31.534Z,1040.00
2023-02-05T13:35:31.506Z,1016.00
2023-02-05T13:36:31.502Z,948.00
2023-02-05T13:37:31.513Z,836.00
2023-02-05T13:38:31.521Z,876.00
2023-02-05T13:39:34.536Z,828.00
2023-02-05T13:40:31.631Z,812.00
2023-02-05T13:41:31.528Z,672.00
2023-02-05T13:42:31.505Z,736.00
2023-02-05T13:43:31.525Z,724.00
2023-02-05T13:44:31.521Z,636.00
2023-02-05T13:45:31.017Z,588.00
2023-02-05T13:46:29.654Z,592.00
2023-02-05T13:47:31.503Z,608.00
2023-02-05T13:48:29.643Z,544.00
2023-02-05T13:49:29.632Z,544.00
2023-02-05T13:50:31.521Z,552.00
2023-02-05T13:51:31.027Z,608.00
2023-02-05T13:52:31.518Z,656.00
2023-02-05T13:53:31.512Z,608.00
2023-02-05T13:54:29.604Z,492.00
2023-02-05T13:55:31.549Z,468.00
2023-02-05T13:56:31.565Z,448.00
2023-02-05T13:57:31.518Z,424.00
2023-02-05T13:58:30.614Z,364.00
2023-02-05T13:59:31.509Z,376.00
2023-02-05T14:00:31.514Z,360.00
2023-02-05T14:01:31.617Z,424.00
2023-02-05T14:02:30.579Z,396.00
2023-02-05T14:03:31.536Z,380.00
2023-02-05T14:04:30.574Z,388.00
2023-02-05T14:05:31.547Z,384.00
2023-02-05T14:06:31.569Z,388.00
2023-02-05T14:07:31.528Z,340.00
2023-02-05T14:08:31.518Z,320.00
2023-02-05T14:09:31.529Z,336.00
2023-02-05T14:10:31.520Z,324.00
2023-02-05T14:11:31.534Z,304.00
2023-02-05T14:12:31.534Z,316.00
2023-02-05T14:13:31.528Z,320.00
2023-02-05T14:14:31.521Z,292.00
2023-02-05T14:15:31.542Z,284.00
2023-02-05T14:16:30.540Z,316.00
2023-02-05T14:17:29.526Z,360.00
2023-02-05T14:18:29.530Z,364.00
2023-02-05T14:19:29.525Z,392.00
2023-02-05T14:20:31.064Z,376.00
2023-02-05T14:21:30.548Z,388.00
2023-02-05T14:22:29.508Z,324.00
2023-02-05T14:23:29.514Z,284.00
2023-02-05T14:24:30.578Z,264.00
2023-02-05T14:25:29.524Z,240.00
2023-02-05T14:26:30.521Z,180.00
2023-02-05T14:27:31.085Z,168.00
2023-02-05T14:28:31.074Z,152.00
2023-02-05T14:29:31.047Z,132.00
2023-02-05T14:30:31.076Z,128.00
2023-02-05T14:31:31.186Z,120.00
2023-02-05T14:32:31.060Z,132.00
2023-02-05T14:33:31.057Z,128.00
2023-02-05T14:34:31.054Z,120.00
2023-02-05T14:35:30.481Z,116.00
2023-02-05T14:36:31.063Z,108.00
2023-02-05T14:37:31.085Z,100.00
2023-02-05T14:38:31.084Z,104.00
2023-02-05T14:39:31.059Z,104.00
2023-02-05T14:40:31.076Z,140.00
2023-02-05T14:41:31.071Z,132.00
2023-02-05T14:42:31.062Z,140.00
2023-02-05T14:43:31.066Z,92.00
2023-02-05T14:44:31.080Z,72.00
2023-02-05T14:45:31.066Z,64.00
2023-02-05T14:46:29.483Z,76.00
2023-02-05T14:47:31.069Z,76.00
2023-02-05T14:48:30.593Z,68.00
2023-02-05T14:49:29.419Z,68.00
2023-02-05T14:50:29.426Z,76.00
2023-02-05T14:51:29.393Z,80.00
2023-02-05T14:52:29.403Z,68.00
2023-02-05T14:53:31.095Z,68.00
2023-02-05T14:54:29.398Z,72.00
2023-02-05T14:55:29.384Z,84.00
2023-02-05T14:56:29.386Z,72.00
2023-02-05T14:57:29.374Z,72.00
2023-02-05T14:58:31.079Z,84.00
2023-02-05T14:59:30.633Z,92.00
2023-02-05T15:00:30.387Z,88.00
2023-02-05T15:01:31.106Z,84.00
2023-02-05T15:02:29.365Z,72.00
2023-02-05T15:03:31.135Z,88.00
2023-02-05T15:04:31.095Z,112.00
2023-02-05T15:05:31.061Z,116.00
2023-02-05T15:06:31.070Z,124.00
2023-02-05T15:07:30.330Z,148.00
2023-02-05T15:08:31.094Z,136.00
2023-02-05T15:09:31.074Z,96.00
2023-02-05T15:10:31.088Z,88.00
2023-02-05T15:11:31.071Z,60.00
2023-02-05T15:12:31.075Z,64.00
2023-02-05T15:13:31.099Z,64.00
2023-02-05T15:14:31.100Z,96.00
2023-02-05T15:15:31.088Z,112.00
2023-02-05T15:16:31.108Z,112.00
2023-02-05T15:17:31.087Z,112.00
2023-02-05T15:18:31.102Z,128.00
2023-02-05T15:19:31.088Z,132.00
2023-02-05T15:20:32.176Z,136.00
2023-02-05T15:21:30.285Z,156.00
2023-02-05T15:22:29.269Z,148.00
2023-02-05T15:23:30.602Z,148.00
2023-02-05T15:24:30.600Z,148.00
2023-02-05T15:25:30.263Z,128.00
2023-02-05T15:26:30.268Z,104.00
2023-02-05T15:27:29.266Z,88.00
2023-02-05T15:28:30.330Z,76.00
2023-02-05T15:29:31.108Z,64.00
2023-02-05T15:30:31.108Z,52.00
2023-02-05T15:31:29.268Z,44.00
2023-02-05T15:32:31.133Z,44.00
2023-02-05T15:33:31.104Z,44.00
2023-02-05T15:34:30.225Z,44.00
2023-02-05T15:35:31.098Z,40.00
2023-02-05T15:36:30.212Z,36.00
2023-02-05T15:37:31.116Z,36.00
2023-02-05T15:38:31.100Z,40.00
2023-02-05T15:39:31.157Z,36.00
2023-02-05T15:40:31.099Z,36.00
2023-02-05T15:41:31.125Z,40.00
2023-02-05T15:42:31.126Z,40.00
2023-02-05T15:43:29.199Z,44.00
2023-02-05T15:44:31.123Z,48.00
2023-02-05T15:45:29.197Z,44.00
2023-02-05T15:46:29.288Z,36.00
2023-02-05T15:47:31.143Z,36.00
2023-02-05T15:48:29.185Z,36.00
2023-02-05T15:49:29.172Z,32.00
2023-02-05T15:50:31.132Z,28.00
2023-02-05T15:51:29.179Z,28.00
2023-02-05T15:52:30.651Z,24.00
2023-02-05T15:53:29.168Z,24.00
2023-02-05T15:54:29.184Z,20.00
2023-02-05T15:55:29.179Z,16.00
2023-02-05T15:56:29.135Z,16.00
2023-02-05T15:57:30.640Z,16.00
2023-02-05T15:58:29.274Z,16.00
2023-02-05T15:59:29.125Z,16.00
2023-02-05T16:00:29.142Z,20.00
2023-02-05T16:12:50.003Z,12.00
2023-02-05T16:13:49.030Z,8.00
2023-02-05T16:14:49.979Z,8.00
2023-02-05T16:15:49.983Z,8.00
2023-02-05T16:16:49.963Z,8.00
2023-02-05T16:17:49.965Z,8.00
2023-02-05T16:18:49.973Z,4.00
2023-02-05T16:19:50.011Z,4.00
2023-02-05T16:20:49.965Z,4.00
2023-02-05T16:21:49.968Z,4.00
2023-02-05T16:22:48.995Z,4.00
2023-02-05T16:23:49.464Z,4.00
2023-02-05T16:24:49.545Z,4.00
2023-02-05T16:25:49.470Z,4.00
2023-02-05T16:26:49.496Z,4.00
2023-02-05T16:27:49.511Z,4.00
2023-02-05T16:28:48.963Z,4.00
2023-02-05T16:29:49.481Z,4.00
2023-02-05T16:30:47.992Z,0.00
2023-02-05T16:31:47.958Z,0.00
2023-02-05T16:32:47.922Z,0.00
2023-02-05T16:33:48.980Z,0.00
2023-02-05T16:34:47.908Z,0.00
2023-02-05T16:35:47.924Z,0.00
2023-02-05T16:36:47.912Z,0.00
2023-02-05T16:37:48.987Z,0.00
2023-02-05T16:38:47.895Z,0.00
2023-02-05T16:39:47.899Z,0.00
2023-02-05T16:40:47.922Z,0.00
2023-02-05T16:41:47.879Z,0.00
2023-02-05T16:42:48.992Z,0.00
2023-02-05T16:43:47.877Z,0.00
2023-02-05T16:44:49.504Z,0.00
2023-02-05T16:45:50.036Z,0.00
2023-02-05T16:46:47.864Z,0.00
2023-02-05T16:47:48.856Z,0.00
2023-02-05T16:48:49.486Z,0.00
2023-02-05T16:49:49.530Z,0.00
2023-02-05T16:50:49.013Z,0.00
2023-02-05T16:52:49.499Z,0.00
2023-02-05T16:53:49.005Z,0.00
2023-02-05T16:54:48.824Z,0.00
2023-02-05T16:55:48.830Z,0.00
2023-02-05T16:56:49.500Z,0.00
2023-02-05T16:57:48.813Z,0.00
2023-02-05T16:58:49.498Z,0.00
2023-02-05T16:59:48.998Z,0.00
2023-02-05T17:00:47.818Z,0.00
2023-02-05T17:01:47.826Z,0.00
2023-02-05T17:02:49.023Z,0.00
2023-02-05T17:03:47.787Z,0.00
2023-02-05T17:04:48.783Z,0.00
2023-02-05T17:05:47.784Z,0.00